AFR720 EDDM-LKPR
Flight info
| Callsign | AFR720 |
|---|---|
| Flight time | 0h 45m |
| Altitude | 26000 |
| Route | AKINI1N/26R AKINI Y104 MAMOR L132 AGNAV/N0379F250 DCT LOMKI |
| Aircraft | A339/H-SADE1E2E3GHIJ3J5M1P2RWXY/LB2D1 |
Departure
| Time | 2026-05-07 16:36 |
|---|---|
| Airport | Munich Airport (EDDM) |
Arrival
| Time | 2026-05-07 17:21 |
|---|---|
| Airport | Václav Havel Airport Prague (LKPR) |
| Time | Latitude | Longitude | Altitude | Speed | Heading |
|---|---|---|---|---|---|
| 2026-05-07 16:30 | 48.36234 | 11.79736 | 1461 ft | 0 kts | 84° |
| 2026-05-07 16:31 | 48.36234 | 11.79737 | 1461 ft | 0 kts | 84° |
| 2026-05-07 16:31 | 48.36234 | 11.79738 | 1461 ft | 0 kts | 84° |
| 2026-05-07 16:32 | 48.36234 | 11.79739 | 1461 ft | 0 kts | 84° |
| 2026-05-07 16:32 | 48.36255 | 11.80007 | 1458 ft | 48 kts | 83° |
| 2026-05-07 16:32 | 48.36297 | 11.80565 | 1455 ft | 56 kts | 84° |
| 2026-05-07 16:33 | 48.36341 | 11.81145 | 1451 ft | 49 kts | 83° |
| 2026-05-07 16:33 | 48.36379 | 11.81639 | 1451 ft | 46 kts | 83° |
| 2026-05-07 16:33 | 48.36397 | 11.82045 | 1451 ft | 26 kts | 88° |
| 2026-05-07 16:33 | 48.36433 | 11.82149 | 1451 ft | 0 kts | 21° |
| 2026-05-07 16:34 | 48.36433 | 11.82150 | 1451 ft | 0 kts | 20° |
| 2026-05-07 16:34 | 48.36434 | 11.82150 | 1451 ft | 0 kts | 19° |
| 2026-05-07 16:34 | 48.36435 | 11.82150 | 1451 ft | 0 kts | 19° |
| 2026-05-07 16:35 | 48.36560 | 11.82133 | 1451 ft | 38 kts | 345° |
| 2026-05-07 16:36 | 48.36659 | 11.81720 | 1451 ft | 68 kts | 264° |
| 2026-05-07 16:36 | 48.36573 | 11.80579 | 1456 ft | 149 kts | 264° |
| 2026-05-07 16:36 | 48.36453 | 11.78853 | 1935 ft | 181 kts | 267° |
| 2026-05-07 16:36 | 48.36297 | 11.76870 | 2831 ft | 196 kts | 265° |
| 2026-05-07 16:37 | 48.36140 | 11.74912 | 3930 ft | 198 kts | 266° |
| 2026-05-07 16:37 | 48.35976 | 11.72805 | 4416 ft | 217 kts | 265° |
| 2026-05-07 16:37 | 48.35797 | 11.70499 | 5043 ft | 228 kts | 265° |
| 2026-05-07 16:37 | 48.35947 | 11.68157 | 5686 ft | 234 kts | 292° |
| 2026-05-07 16:38 | 48.36923 | 11.66204 | 6370 ft | 238 kts | 320° |
| 2026-05-07 16:38 | 48.38392 | 11.65132 | 6977 ft | 244 kts | 345° |
| 2026-05-07 16:38 | 48.40194 | 11.64727 | 7047 ft | 274 kts | 348° |
| 2026-05-07 16:38 | 48.42081 | 11.64208 | 7024 ft | 276 kts | 347° |
| 2026-05-07 16:39 | 48.43986 | 11.63648 | 7032 ft | 293 kts | 348° |
| 2026-05-07 16:39 | 48.46058 | 11.63650 | 7028 ft | 309 kts | 8° |
| 2026-05-07 16:39 | 48.48100 | 11.64765 | 7025 ft | 315 kts | 27° |
| 2026-05-07 16:39 | 48.49818 | 11.66802 | 7019 ft | 318 kts | 46° |
| 2026-05-07 16:40 | 48.51107 | 11.69531 | 7016 ft | 319 kts | 55° |
| 2026-05-07 16:40 | 48.52343 | 11.72255 | 7002 ft | 318 kts | 51° |
| 2026-05-07 16:40 | 48.53986 | 11.74442 | 7033 ft | 314 kts | 32° |
| 2026-05-07 16:40 | 48.55797 | 11.76337 | 7016 ft | 314 kts | 33° |
| 2026-05-07 16:41 | 48.57578 | 11.78219 | 7003 ft | 314 kts | 33° |
| 2026-05-07 16:41 | 48.59367 | 11.80112 | 7008 ft | 314 kts | 33° |
| 2026-05-07 16:41 | 48.61166 | 11.82017 | 7014 ft | 314 kts | 33° |
| 2026-05-07 16:41 | 48.62926 | 11.83884 | 7007 ft | 313 kts | 33° |
| 2026-05-07 16:42 | 48.64719 | 11.85786 | 7005 ft | 313 kts | 33° |
| 2026-05-07 16:42 | 48.66502 | 11.87680 | 7001 ft | 313 kts | 33° |
| 2026-05-07 16:42 | 48.68281 | 11.89571 | 7005 ft | 313 kts | 33° |
| 2026-05-07 16:42 | 48.70056 | 11.91460 | 7002 ft | 313 kts | 33° |
| 2026-05-07 16:43 | 48.71836 | 11.93354 | 7004 ft | 312 kts | 33° |
| 2026-05-07 16:43 | 48.73597 | 11.95231 | 7005 ft | 313 kts | 33° |
| 2026-05-07 16:43 | 48.75378 | 11.97131 | 7005 ft | 313 kts | 33° |
| 2026-05-07 16:43 | 48.77219 | 11.99094 | 7025 ft | 336 kts | 33° |
| 2026-05-07 16:44 | 48.79208 | 12.01126 | 68429 ft | 384 kts | 34° |
| 2026-05-07 16:44 | 48.80418 | 12.02468 | 26184 ft | 421 kts | 36° |
| 2026-05-07 16:44 | 48.82765 | 12.05076 | 26638 ft | 420 kts | 32° |
| 2026-05-07 16:44 | 48.84952 | 12.07400 | 29088 ft | 368 kts | 32° |
| 2026-05-07 16:45 | 48.86986 | 12.09563 | 29773 ft | 365 kts | 32° |
| 2026-05-07 16:45 | 48.89109 | 12.11834 | 29880 ft | 377 kts | 33° |
| 2026-05-07 16:45 | 48.91332 | 12.14216 | 29151 ft | 411 kts | 33° |
| 2026-05-07 16:45 | 48.93705 | 12.16771 | 28429 ft | 424 kts | 33° |
| 2026-05-07 16:46 | 48.96108 | 12.19363 | 27704 ft | 424 kts | 33° |
| 2026-05-07 16:46 | 48.98518 | 12.21965 | 26973 ft | 423 kts | 33° |
| 2026-05-07 16:46 | 49.00901 | 12.24540 | 26247 ft | 422 kts | 33° |
| 2026-05-07 16:46 | 49.33639 | 12.59577 | 25577 ft | 416 kts | 30° |
| 2026-05-07 16:47 | 49.62499 | 12.90761 | 24833 ft | 416 kts | 37° |
| 2026-05-07 16:47 | 49.64542 | 12.93882 | 23889 ft | 421 kts | 42° |
| 2026-05-07 16:47 | 49.66761 | 12.96769 | 22784 ft | 424 kts | 35° |
| 2026-05-07 16:47 | 49.69142 | 12.99529 | 21711 ft | 428 kts | 34° |
| 2026-05-07 16:48 | 49.71540 | 13.02249 | 20658 ft | 431 kts | 34° |
| 2026-05-07 16:48 | 49.73953 | 13.04967 | 19612 ft | 433 kts | 34° |
| 2026-05-07 16:48 | 49.76387 | 13.07705 | 18622 ft | 433 kts | 34° |
| 2026-05-07 16:48 | 49.78773 | 13.10390 | 17844 ft | 429 kts | 34° |
| 2026-05-07 16:49 | 49.81168 | 13.13086 | 17079 ft | 425 kts | 34° |
| 2026-05-07 16:49 | 49.83557 | 13.15779 | 16251 ft | 417 kts | 34° |
| 2026-05-07 16:49 | 49.85823 | 13.18336 | 15420 ft | 398 kts | 35° |
| 2026-05-07 16:49 | 49.88005 | 13.20804 | 14666 ft | 381 kts | 35° |
| 2026-05-07 16:50 | 49.89922 | 13.23489 | 13897 ft | 369 kts | 47° |
| 2026-05-07 16:50 | 49.91343 | 13.26699 | 13150 ft | 359 kts | 62° |
| 2026-05-07 16:50 | 49.92571 | 13.29926 | 12998 ft | 338 kts | 50° |
| 2026-05-07 16:50 | 49.94271 | 13.32228 | 13009 ft | 319 kts | 32° |
| 2026-05-07 16:51 | 49.95944 | 13.34401 | 12949 ft | 312 kts | 50° |
| 2026-05-07 16:51 | 49.96959 | 13.37473 | 13025 ft | 335 kts | 75° |
| 2026-05-07 16:51 | 49.97440 | 13.41123 | 13029 ft | 353 kts | 77° |
| 2026-05-07 16:51 | 49.98124 | 13.44754 | 12967 ft | 351 kts | 71° |
| 2026-05-07 16:52 | 49.98925 | 13.48313 | 12975 ft | 349 kts | 70° |
| 2026-05-07 16:52 | 49.99762 | 13.51816 | 12978 ft | 349 kts | 69° |
| 2026-05-07 16:52 | 50.00623 | 13.55361 | 12992 ft | 358 kts | 69° |
| 2026-05-07 16:52 | 50.01539 | 13.59054 | 12972 ft | 372 kts | 69° |
| 2026-05-07 16:53 | 50.02473 | 13.62812 | 12558 ft | 375 kts | 69° |
| 2026-05-07 16:53 | 50.03384 | 13.66575 | 12105 ft | 369 kts | 72° |
| 2026-05-07 16:53 | 50.03738 | 13.70476 | 11607 ft | 362 kts | 93° |
| 2026-05-07 16:53 | 50.03308 | 13.74268 | 11055 ft | 352 kts | 105° |
| 2026-05-07 16:54 | 50.02726 | 13.77882 | 10508 ft | 340 kts | 105° |
| 2026-05-07 16:54 | 50.02161 | 13.81362 | 9981 ft | 330 kts | 105° |
| 2026-05-07 16:54 | 50.01608 | 13.84757 | 9435 ft | 318 kts | 105° |
| 2026-05-07 16:54 | 50.01076 | 13.88024 | 8897 ft | 304 kts | 105° |
| 2026-05-07 16:55 | 50.00573 | 13.91120 | 8394 ft | 292 kts | 105° |
| 2026-05-07 16:55 | 50.00089 | 13.94092 | 7942 ft | 280 kts | 105° |
| 2026-05-07 16:55 | 49.99623 | 13.96955 | 7496 ft | 271 kts | 105° |
| 2026-05-07 16:55 | 49.99167 | 13.99755 | 7061 ft | 267 kts | 105° |
| 2026-05-07 16:56 | 49.98709 | 14.02563 | 6697 ft | 267 kts | 105° |
| 2026-05-07 16:56 | 49.98253 | 14.05349 | 6312 ft | 271 kts | 105° |
| 2026-05-07 16:56 | 49.97300 | 14.11093 | 5475 ft | 280 kts | 105° |
| 2026-05-07 16:57 | 49.96806 | 14.14012 | 5067 ft | 282 kts | 105° |
| 2026-05-07 16:57 | 49.96304 | 14.16941 | 4983 ft | 272 kts | 105° |
| 2026-05-07 16:57 | 49.95832 | 14.19691 | 4993 ft | 261 kts | 105° |
| 2026-05-07 16:57 | 49.95368 | 14.22393 | 4987 ft | 257 kts | 105° |
| 2026-05-07 16:58 | 49.94904 | 14.25079 | 4997 ft | 258 kts | 105° |
| 2026-05-07 16:58 | 49.94442 | 14.27766 | 4995 ft | 258 kts | 105° |
| 2026-05-07 16:58 | 49.93982 | 14.30456 | 4996 ft | 258 kts | 105° |
| 2026-05-07 16:58 | 49.93522 | 14.33153 | 4961 ft | 259 kts | 105° |
| 2026-05-07 16:59 | 49.93146 | 14.35899 | 4624 ft | 264 kts | 96° |
| 2026-05-07 16:59 | 49.92973 | 14.38720 | 4314 ft | 265 kts | 95° |
| 2026-05-07 16:59 | 49.92800 | 14.41575 | 4020 ft | 266 kts | 95° |
| 2026-05-07 16:59 | 49.92630 | 14.44351 | 3981 ft | 255 kts | 95° |
| 2026-05-07 17:00 | 49.92465 | 14.47034 | 3972 ft | 244 kts | 95° |
| 2026-05-07 17:00 | 49.92307 | 14.49602 | 3962 ft | 233 kts | 94° |
| 2026-05-07 17:00 | 49.92461 | 14.52005 | 3962 ft | 223 kts | 64° |
| 2026-05-07 17:00 | 49.93373 | 14.53786 | 3979 ft | 205 kts | 28° |
| 2026-05-07 17:01 | 49.94668 | 14.54313 | 3999 ft | 184 kts | 349° |
| 2026-05-07 17:01 | 49.95815 | 14.53795 | 4089 ft | 165 kts | 336° |
| 2026-05-07 17:01 | 49.96836 | 14.53047 | 3948 ft | 161 kts | 317° |
| 2026-05-07 17:01 | 49.97489 | 14.51826 | 3948 ft | 141 kts | 303° |
| 2026-05-07 17:02 | 49.98073 | 14.50612 | 3981 ft | 139 kts | 305° |
| 2026-05-07 17:02 | 49.98664 | 14.49411 | 3990 ft | 138 kts | 305° |
| 2026-05-07 17:02 | 49.99243 | 14.48241 | 3990 ft | 138 kts | 306° |
| 2026-05-07 17:02 | 49.99833 | 14.47054 | 3989 ft | 139 kts | 306° |
| 2026-05-07 17:03 | 50.00423 | 14.45869 | 4010 ft | 139 kts | 306° |
| 2026-05-07 17:03 | 50.01028 | 14.44675 | 3892 ft | 141 kts | 307° |
| 2026-05-07 17:03 | 50.01626 | 14.43478 | 3698 ft | 139 kts | 305° |
| 2026-05-07 17:03 | 50.02175 | 14.42240 | 3499 ft | 138 kts | 302° |
| 2026-05-07 17:04 | 50.02690 | 14.40997 | 3310 ft | 138 kts | 303° |
| 2026-05-07 17:04 | 50.03295 | 14.39832 | 3113 ft | 138 kts | 313° |
| 2026-05-07 17:04 | 50.03959 | 14.38766 | 2924 ft | 137 kts | 313° |
| 2026-05-07 17:04 | 50.04566 | 14.37631 | 2693 ft | 137 kts | 302° |
| 2026-05-07 17:05 | 50.05040 | 14.36379 | 2511 ft | 135 kts | 297° |
| 2026-05-07 17:05 | 50.05627 | 14.35233 | 2359 ft | 137 kts | 310° |
| 2026-05-07 17:05 | 50.06266 | 14.34136 | 2211 ft | 136 kts | 304° |
| 2026-05-07 17:05 | 50.06739 | 14.32864 | 1998 ft | 136 kts | 297° |
| 2026-05-07 17:06 | 50.07315 | 14.31718 | 1817 ft | 136 kts | 309° |
| 2026-05-07 17:06 | 50.07912 | 14.30590 | 1668 ft | 134 kts | 301° |
| 2026-05-07 17:06 | 50.08446 | 14.29393 | 1452 ft | 134 kts | 306° |
| 2026-05-07 17:06 | 50.09005 | 14.28248 | 1377 ft | 134 kts | 303° |
| 2026-05-07 17:07 | 50.09582 | 14.27016 | 1691 ft | 151 kts | 302° |
| 2026-05-07 17:07 | 50.10203 | 14.25569 | 2338 ft | 178 kts | 300° |
| 2026-05-07 17:07 | 50.10919 | 14.23696 | 2932 ft | 226 kts | 299° |
| 2026-05-07 17:07 | 50.11736 | 14.21407 | 3850 ft | 264 kts | 298° |
| 2026-05-07 17:08 | 50.12620 | 14.18805 | 4951 ft | 276 kts | 296° |
| 2026-05-07 17:08 | 50.13427 | 14.16357 | 5484 ft | 246 kts | 296° |
| 2026-05-07 17:08 | 50.14214 | 14.13979 | 5224 ft | 245 kts | 297° |
| 2026-05-07 17:08 | 50.14891 | 14.11593 | 5037 ft | 238 kts | 278° |
| 2026-05-07 17:09 | 50.14752 | 14.09191 | 5267 ft | 223 kts | 258° |
| 2026-05-07 17:09 | 50.14104 | 14.07007 | 5099 ft | 221 kts | 234° |
| 2026-05-07 17:09 | 50.13020 | 14.05311 | 4765 ft | 232 kts | 214° |
| 2026-05-07 17:09 | 50.11394 | 14.04390 | 5051 ft | 263 kts | 191° |
| 2026-05-07 17:10 | 50.09491 | 14.04513 | 5097 ft | 284 kts | 167° |
| 2026-05-07 17:10 | 50.07767 | 14.05869 | 5070 ft | 275 kts | 142° |
| 2026-05-07 17:10 | 50.06406 | 14.07887 | 4979 ft | 266 kts | 136° |
| 2026-05-07 17:10 | 50.05097 | 14.09868 | 4887 ft | 258 kts | 137° |
| 2026-05-07 17:11 | 50.03820 | 14.11765 | 4794 ft | 250 kts | 136° |
| 2026-05-07 17:11 | 50.02648 | 14.13668 | 4997 ft | 246 kts | 135° |
| 2026-05-07 17:11 | 50.01479 | 14.15563 | 4993 ft | 243 kts | 135° |
| 2026-05-07 17:11 | 50.00335 | 14.17411 | 4965 ft | 227 kts | 135° |
| 2026-05-07 17:12 | 49.99272 | 14.19135 | 4980 ft | 216 kts | 135° |
| 2026-05-07 17:12 | 49.98234 | 14.20826 | 4991 ft | 214 kts | 135° |
| 2026-05-07 17:12 | 49.97214 | 14.22493 | 5002 ft | 220 kts | 135° |
| 2026-05-07 17:12 | 49.96140 | 14.24243 | 5005 ft | 224 kts | 135° |
| 2026-05-07 17:13 | 49.95068 | 14.25988 | 4996 ft | 224 kts | 135° |
| 2026-05-07 17:13 | 49.94157 | 14.27913 | 4924 ft | 221 kts | 113° |
| 2026-05-07 17:13 | 49.93695 | 14.30203 | 4511 ft | 226 kts | 105° |
| 2026-05-07 17:13 | 49.93289 | 14.32552 | 4106 ft | 229 kts | 105° |
| 2026-05-07 17:14 | 49.92880 | 14.34894 | 3974 ft | 216 kts | 105° |
| 2026-05-07 17:14 | 49.92521 | 14.37081 | 4031 ft | 202 kts | 99° |
| 2026-05-07 17:14 | 49.92523 | 14.39222 | 4034 ft | 202 kts | 84° |
| 2026-05-07 17:14 | 49.92613 | 14.41398 | 3977 ft | 200 kts | 85° |
| 2026-05-07 17:15 | 49.92700 | 14.43555 | 3995 ft | 201 kts | 85° |
| 2026-05-07 17:15 | 49.92787 | 14.45699 | 3989 ft | 200 kts | 85° |
| 2026-05-07 17:15 | 49.92873 | 14.47798 | 3970 ft | 192 kts | 85° |
| 2026-05-07 17:15 | 49.93099 | 14.49819 | 3949 ft | 189 kts | 62° |
| 2026-05-07 17:16 | 49.93980 | 14.51201 | 4003 ft | 178 kts | 21° |
| 2026-05-07 17:16 | 49.95213 | 14.51336 | 4019 ft | 181 kts | 342° |
| 2026-05-07 17:16 | 49.96396 | 14.50641 | 4014 ft | 184 kts | 335° |
| 2026-05-07 17:16 | 49.97566 | 14.49901 | 3991 ft | 183 kts | 335° |
| 2026-05-07 17:17 | 49.98729 | 14.49075 | 3970 ft | 183 kts | 325° |
| 2026-05-07 17:17 | 49.99567 | 14.47653 | 4001 ft | 180 kts | 304° |
| 2026-05-07 17:17 | 50.00304 | 14.46087 | 3984 ft | 175 kts | 306° |
| 2026-05-07 17:17 | 50.01015 | 14.44634 | 3787 ft | 164 kts | 306° |
| 2026-05-07 17:18 | 50.01691 | 14.43262 | 3587 ft | 158 kts | 306° |
| 2026-05-07 17:18 | 50.02347 | 14.41914 | 3412 ft | 157 kts | 306° |
| 2026-05-07 17:18 | 50.03006 | 14.40560 | 3218 ft | 156 kts | 306° |
| 2026-05-07 17:18 | 50.03670 | 14.39239 | 3021 ft | 150 kts | 307° |
| 2026-05-07 17:19 | 50.04296 | 14.38043 | 2763 ft | 138 kts | 308° |
| 2026-05-07 17:19 | 50.04857 | 14.36843 | 2566 ft | 135 kts | 301° |
| 2026-05-07 17:19 | 50.05415 | 14.35669 | 2420 ft | 136 kts | 306° |
| 2026-05-07 17:19 | 50.06000 | 14.34509 | 2231 ft | 137 kts | 305° |
| 2026-05-07 17:20 | 50.06553 | 14.33299 | 2083 ft | 136 kts | 302° |
| 2026-05-07 17:20 | 50.07127 | 14.32118 | 1904 ft | 137 kts | 307° |
| 2026-05-07 17:20 | 50.07716 | 14.30953 | 1713 ft | 137 kts | 303° |
| 2026-05-07 17:20 | 50.08232 | 14.29729 | 1540 ft | 135 kts | 303° |
| 2026-05-07 17:21 | 50.08833 | 14.28589 | 1342 ft | 136 kts | 307° |
| 2026-05-07 17:21 | 50.09395 | 14.27442 | 1225 ft | 128 kts | 305° |
| 2026-05-07 17:21 | 50.09781 | 14.26644 | 1216 ft | 81 kts | 305° |
| 2026-05-07 17:21 | 50.10100 | 14.25992 | 1200 ft | 43 kts | 307° |
| 2026-05-07 17:22 | 50.10254 | 14.25720 | 1191 ft | 31 kts | 325° |
| 2026-05-07 17:22 | 50.10374 | 14.25657 | 1186 ft | 0 kts | 356° |
| 2026-05-07 17:23 | 50.10375 | 14.25657 | 1186 ft | 0 kts | 356° |
| 2026-05-07 17:24 | 50.10376 | 14.25657 | 1186 ft | 0 kts | 356° |
| 2026-05-07 17:24 | 50.10377 | 14.25656 | 1186 ft | 0 kts | 356° |
| 2026-05-07 17:24 | 50.10509 | 14.25697 | 1181 ft | 1 kts | 47° |
| 2026-05-07 17:24 | 50.10509 | 14.25698 | 1181 ft | 0 kts | 49° |
| 2026-05-07 17:25 | 50.10552 | 14.25853 | 1180 ft | 20 kts | 110° |
| 2026-05-07 17:25 | 50.10489 | 14.26013 | 1185 ft | 15 kts | 125° |
| 2026-05-07 17:25 | 50.10493 | 14.26147 | 1185 ft | 15 kts | 48° |
| 2026-05-07 17:25 | 50.10566 | 14.26244 | 1183 ft | 0 kts | 37° |